sensor_id;sensor_type;location;lat;lon;timestamp;P1;durP1;ratioP1;P2;durP2;ratioP2
45536;SDS011;31262;51.978;5.924;2022-08-03T00:01:42;4.53;;;0.40;;
45536;SDS011;31262;51.978;5.924;2022-08-03T00:04:08;3.88;;;0.38;;
45536;SDS011;31262;51.978;5.924;2022-08-03T00:06:34;2.63;;;0.40;;
45536;SDS011;31262;51.978;5.924;2022-08-03T00:09:00;2.60;;;0.40;;
45536;SDS011;31262;51.978;5.924;2022-08-03T00:11:26;1.98;;;0.30;;
45536;SDS011;31262;51.978;5.924;2022-08-03T00:13:52;2.75;;;0.40;;
45536;SDS011;31262;51.978;5.924;2022-08-03T00:16:18;3.70;;;0.60;;
45536;SDS011;31262;51.978;5.924;2022-08-03T00:18:43;2.45;;;0.40;;
45536;SDS011;31262;51.978;5.924;2022-08-03T00:21:09;1.33;;;0.30;;
45536;SDS011;31262;51.978;5.924;2022-08-03T00:23:35;2.53;;;0.30;;
45536;SDS011;31262;51.978;5.924;2022-08-03T00:26:01;2.63;;;0.35;;
45536;SDS011;31262;51.978;5.924;2022-08-03T00:28:27;3.58;;;0.50;;
45536;SDS011;31262;51.978;5.924;2022-08-03T00:30:52;4.28;;;0.50;;
45536;SDS011;31262;51.978;5.924;2022-08-03T00:33:20;3.00;;;0.73;;
45536;SDS011;31262;51.978;5.924;2022-08-03T00:35:46;3.58;;;0.40;;
45536;SDS011;31262;51.978;5.924;2022-08-03T00:38:12;2.10;;;0.30;;
45536;SDS011;31262;51.978;5.924;2022-08-03T00:40:38;0.80;;;0.20;;
45536;SDS011;31262;51.978;5.924;2022-08-03T00:43:04;4.28;;;0.40;;
45536;SDS011;31262;51.978;5.924;2022-08-03T00:45:41;2.20;;;0.35;;
45536;SDS011;31262;51.978;5.924;2022-08-03T00:48:08;3.15;;;0.60;;
45536;SDS011;31262;51.978;5.924;2022-08-03T00:50:35;2.22;;;0.30;;
45536;SDS011;31262;51.978;5.924;2022-08-03T00:53:03;2.90;;;0.50;;
45536;SDS011;31262;51.978;5.924;2022-08-03T00:55:31;2.85;;;0.40;;
45536;SDS011;31262;51.978;5.924;2022-08-03T00:57:57;1.52;;;0.38;;
45536;SDS011;31262;51.978;5.924;2022-08-03T01:00:24;2.33;;;0.40;;
45536;SDS011;31262;51.978;5.924;2022-08-03T01:02:50;3.25;;;0.30;;
45536;SDS011;31262;51.978;5.924;2022-08-03T01:05:17;4.43;;;0.40;;
45536;SDS011;31262;51.978;5.924;2022-08-03T01:07:46;3.15;;;0.40;;
45536;SDS011;31262;51.978;5.924;2022-08-03T01:10:26;3.58;;;0.32;;
45536;SDS011;31262;51.978;5.924;2022-08-03T01:18:21;2.65;;;0.40;;
45536;SDS011;31262;51.978;5.924;2022-08-03T01:21:06;2.83;;;0.40;;
45536;SDS011;31262;51.978;5.924;2022-08-03T01:23:48;1.70;;;0.30;;
45536;SDS011;31262;51.978;5.924;2022-08-03T01:26:36;3.15;;;0.40;;
45536;SDS011;31262;51.978;5.924;2022-08-03T01:32:00;3.90;;;0.40;;
45536;SDS011;31262;51.978;5.924;2022-08-03T01:34:30;3.40;;;0.50;;
45536;SDS011;31262;51.978;5.924;2022-08-03T01:36:59;3.45;;;0.43;;
45536;SDS011;31262;51.978;5.924;2022-08-03T01:39:29;2.83;;;0.70;;
45536;SDS011;31262;51.978;5.924;2022-08-03T01:41:57;3.65;;;0.50;;
45536;SDS011;31262;51.978;5.924;2022-08-03T01:44:27;2.67;;;0.50;;
45536;SDS011;31262;51.978;5.924;2022-08-03T01:49:22;2.70;;;0.30;;
45536;SDS011;31262;51.978;5.924;2022-08-03T01:51:49;4.15;;;0.40;;
45536;SDS011;31262;51.978;5.924;2022-08-03T01:54:16;3.35;;;0.50;;
45536;SDS011;31262;51.978;5.924;2022-08-03T01:56:42;1.77;;;0.40;;
45536;SDS011;31262;51.978;5.924;2022-08-03T01:59:10;3.47;;;0.40;;
45536;SDS011;31262;51.978;5.924;2022-08-03T02:01:38;1.90;;;0.38;;
45536;SDS011;31262;51.978;5.924;2022-08-03T02:04:05;3.17;;;0.70;;
45536;SDS011;31262;51.978;5.924;2022-08-03T02:06:32;3.50;;;0.40;;
45536;SDS011;31262;51.978;5.924;2022-08-03T02:08:59;1.60;;;0.40;;
45536;SDS011;31262;51.978;5.924;2022-08-03T02:11:26;1.95;;;0.30;;
45536;SDS011;31262;51.978;5.924;2022-08-03T02:13:55;1.77;;;0.40;;
45536;SDS011;31262;51.978;5.924;2022-08-03T02:16:24;2.53;;;0.47;;
45536;SDS011;31262;51.978;5.924;2022-08-03T02:18:53;3.28;;;0.30;;
45536;SDS011;31262;51.978;5.924;2022-08-03T02:21:20;3.47;;;0.40;;
45536;SDS011;31262;51.978;5.924;2022-08-03T02:23:47;3.70;;;0.65;;
45536;SDS011;31262;51.978;5.924;2022-08-03T02:26:13;2.67;;;0.50;;
45536;SDS011;31262;51.978;5.924;2022-08-03T02:28:44;4.05;;;0.43;;
45536;SDS011;31262;51.978;5.924;2022-08-03T02:31:17;2.13;;;0.40;;
45536;SDS011;31262;51.978;5.924;2022-08-03T02:33:49;4.15;;;0.50;;
45536;SDS011;31262;51.978;5.924;2022-08-03T02:36:36;2.95;;;0.47;;
45536;SDS011;31262;51.978;5.924;2022-08-03T02:39:03;3.97;;;0.50;;
45536;SDS011;31262;51.978;5.924;2022-08-03T02:41:34;2.70;;;0.47;;
45536;SDS011;31262;51.978;5.924;2022-08-03T02:44:08;2.80;;;0.75;;
45536;SDS011;31262;51.978;5.924;2022-08-03T02:46:36;4.63;;;0.50;;
45536;SDS011;31262;51.978;5.924;2022-08-03T02:49:05;2.50;;;0.40;;
45536;SDS011;31262;51.978;5.924;2022-08-03T02:51:32;3.15;;;0.70;;
45536;SDS011;31262;51.978;5.924;2022-08-03T02:54:01;4.15;;;0.70;;
45536;SDS011;31262;51.978;5.924;2022-08-03T02:56:27;3.97;;;0.50;;
45536;SDS011;31262;51.978;5.924;2022-08-03T02:58:55;3.30;;;0.50;;
45536;SDS011;31262;51.978;5.924;2022-08-03T03:01:22;2.90;;;0.50;;
45536;SDS011;31262;51.978;5.924;2022-08-03T03:03:50;4.68;;;0.70;;
45536;SDS011;31262;51.978;5.924;2022-08-03T03:06:17;3.55;;;0.50;;
45536;SDS011;31262;51.978;5.924;2022-08-03T03:08:44;2.67;;;0.50;;
45536;SDS011;31262;51.978;5.924;2022-08-03T03:11:12;3.55;;;0.70;;
45536;SDS011;31262;51.978;5.924;2022-08-03T03:13:40;3.50;;;1.02;;
45536;SDS011;31262;51.978;5.924;2022-08-03T03:16:08;3.05;;;0.50;;
45536;SDS011;31262;51.978;5.924;2022-08-03T03:18:35;3.17;;;0.50;;
45536;SDS011;31262;51.978;5.924;2022-08-03T03:21:02;3.03;;;0.60;;
45536;SDS011;31262;51.978;5.924;2022-08-03T03:23:29;5.13;;;0.70;;
45536;SDS011;31262;51.978;5.924;2022-08-03T03:25:56;5.60;;;0.60;;
45536;SDS011;31262;51.978;5.924;2022-08-03T03:28:23;4.75;;;0.60;;
45536;SDS011;31262;51.978;5.924;2022-08-03T03:30:49;4.22;;;0.70;;
45536;SDS011;31262;51.978;5.924;2022-08-03T03:33:15;3.47;;;0.60;;
45536;SDS011;31262;51.978;5.924;2022-08-03T03:35:41;2.60;;;0.47;;
45536;SDS011;31262;51.978;5.924;2022-08-03T03:38:09;4.13;;;0.70;;
45536;SDS011;31262;51.978;5.924;2022-08-03T03:40:35;3.40;;;0.60;;
45536;SDS011;31262;51.978;5.924;2022-08-03T03:45:33;5.32;;;0.60;;
45536;SDS011;31262;51.978;5.924;2022-08-03T03:48:03;3.22;;;0.50;;
45536;SDS011;31262;51.978;5.924;2022-08-03T03:50:29;3.85;;;0.45;;
45536;SDS011;31262;51.978;5.924;2022-08-03T03:52:56;3.20;;;0.52;;
45536;SDS011;31262;51.978;5.924;2022-08-03T03:55:22;4.07;;;0.77;;
45536;SDS011;31262;51.978;5.924;2022-08-03T03:57:48;3.83;;;0.73;;
45536;SDS011;31262;51.978;5.924;2022-08-03T04:00:15;3.33;;;0.80;;
45536;SDS011;31262;51.978;5.924;2022-08-03T04:02:42;3.15;;;0.73;;
45536;SDS011;31262;51.978;5.924;2022-08-03T04:05:09;5.22;;;0.75;;
45536;SDS011;31262;51.978;5.924;2022-08-03T04:13:35;4.40;;;0.85;;
45536;SDS011;31262;51.978;5.924;2022-08-03T04:16:03;4.80;;;0.90;;
45536;SDS011;31262;51.978;5.924;2022-08-03T04:18:32;3.22;;;0.73;;
45536;SDS011;31262;51.978;5.924;2022-08-03T04:21:00;4.13;;;1.10;;
45536;SDS011;31262;51.978;5.924;2022-08-03T04:25:54;3.03;;;1.00;;
45536;SDS011;31262;51.978;5.924;2022-08-03T04:28:21;3.58;;;0.80;;
45536;SDS011;31262;51.978;5.924;2022-08-03T04:30:48;5.97;;;0.77;;
45536;SDS011;31262;51.978;5.924;2022-08-03T04:33:17;4.43;;;1.52;;
45536;SDS011;31262;51.978;5.924;2022-08-03T04:35:45;4.47;;;1.27;;
45536;SDS011;31262;51.978;5.924;2022-08-03T04:38:12;3.47;;;0.98;;
45536;SDS011;31262;51.978;5.924;2022-08-03T04:40:40;3.05;;;0.80;;
45536;SDS011;31262;51.978;5.924;2022-08-03T04:43:08;6.60;;;1.20;;
45536;SDS011;31262;51.978;5.924;2022-08-03T04:45:36;4.35;;;1.52;;
45536;SDS011;31262;51.978;5.924;2022-08-03T04:48:03;6.05;;;1.70;;
45536;SDS011;31262;51.978;5.924;2022-08-03T04:50:29;4.60;;;1.38;;
45536;SDS011;31262;51.978;5.924;2022-08-03T04:52:55;5.65;;;2.08;;
45536;SDS011;31262;51.978;5.924;2022-08-03T04:55:27;9.10;;;2.25;;
45536;SDS011;31262;51.978;5.924;2022-08-03T04:57:55;5.30;;;1.30;;
45536;SDS011;31262;51.978;5.924;2022-08-03T05:00:21;6.70;;;1.80;;
45536;SDS011;31262;51.978;5.924;2022-08-03T05:02:47;5.80;;;2.40;;
45536;SDS011;31262;51.978;5.924;2022-08-03T05:05:13;6.80;;;1.35;;
45536;SDS011;31262;51.978;5.924;2022-08-03T05:07:40;7.00;;;2.25;;
45536;SDS011;31262;51.978;5.924;2022-08-03T05:10:06;6.50;;;1.95;;
45536;SDS011;31262;51.978;5.924;2022-08-03T05:12:33;5.35;;;1.83;;
45536;SDS011;31262;51.978;5.924;2022-08-03T05:14:59;8.38;;;1.80;;
45536;SDS011;31262;51.978;5.924;2022-08-03T05:17:25;6.30;;;1.75;;
45536;SDS011;31262;51.978;5.924;2022-08-03T05:19:52;7.47;;;2.00;;
45536;SDS011;31262;51.978;5.924;2022-08-03T05:22:18;6.13;;;1.60;;
45536;SDS011;31262;51.978;5.924;2022-08-03T05:24:44;6.03;;;1.48;;
45536;SDS011;31262;51.978;5.924;2022-08-03T05:27:10;5.30;;;1.35;;
45536;SDS011;31262;51.978;5.924;2022-08-03T05:29:41;5.85;;;1.70;;
45536;SDS011;31262;51.978;5.924;2022-08-03T05:32:07;6.65;;;2.33;;
45536;SDS011;31262;51.978;5.924;2022-08-03T05:34:33;6.70;;;1.80;;
45536;SDS011;31262;51.978;5.924;2022-08-03T05:36:58;7.38;;;2.28;;
45536;SDS011;31262;51.978;5.924;2022-08-03T05:39:24;7.18;;;2.20;;
45536;SDS011;31262;51.978;5.924;2022-08-03T05:41:49;8.23;;;3.42;;
45536;SDS011;31262;51.978;5.924;2022-08-03T05:44:15;9.00;;;2.67;;
45536;SDS011;31262;51.978;5.924;2022-08-03T05:46:41;8.60;;;3.30;;
45536;SDS011;31262;51.978;5.924;2022-08-03T05:49:06;9.57;;;4.50;;
45536;SDS011;31262;51.978;5.924;2022-08-03T05:51:32;10.43;;;3.47;;
45536;SDS011;31262;51.978;5.924;2022-08-03T05:53:57;10.77;;;3.50;;
45536;SDS011;31262;51.978;5.924;2022-08-03T05:56:23;8.50;;;2.65;;
45536;SDS011;31262;51.978;5.924;2022-08-03T05:58:49;7.75;;;2.55;;
45536;SDS011;31262;51.978;5.924;2022-08-03T06:01:16;5.72;;;1.80;;
45536;SDS011;31262;51.978;5.924;2022-08-03T06:03:42;5.93;;;1.48;;
45536;SDS011;31262;51.978;5.924;2022-08-03T06:06:08;5.32;;;1.83;;
45536;SDS011;31262;51.978;5.924;2022-08-03T06:08:35;8.00;;;2.40;;
45536;SDS011;31262;51.978;5.924;2022-08-03T06:11:01;11.60;;;2.40;;
45536;SDS011;31262;51.978;5.924;2022-08-03T06:13:27;8.35;;;2.58;;
45536;SDS011;31262;51.978;5.924;2022-08-03T06:15:52;6.47;;;2.00;;
45536;SDS011;31262;51.978;5.924;2022-08-03T06:18:18;9.05;;;1.92;;
45536;SDS011;31262;51.978;5.924;2022-08-03T06:20:44;5.88;;;1.92;;
45536;SDS011;31262;51.978;5.924;2022-08-03T06:23:09;7.55;;;2.03;;
45536;SDS011;31262;51.978;5.924;2022-08-03T06:25:35;9.05;;;2.55;;
45536;SDS011;31262;51.978;5.924;2022-08-03T06:28:01;6.90;;;1.80;;
45536;SDS011;31262;51.978;5.924;2022-08-03T06:30:27;10.23;;;2.40;;
45536;SDS011;31262;51.978;5.924;2022-08-03T06:32:53;6.90;;;1.75;;
45536;SDS011;31262;51.978;5.924;2022-08-03T06:35:19;8.07;;;2.28;;
45536;SDS011;31262;51.978;5.924;2022-08-03T06:37:45;7.63;;;2.10;;
45536;SDS011;31262;51.978;5.924;2022-08-03T06:40:13;8.95;;;2.33;;
45536;SDS011;31262;51.978;5.924;2022-08-03T06:42:40;7.65;;;2.08;;
45536;SDS011;31262;51.978;5.924;2022-08-03T06:45:07;10.35;;;2.80;;
45536;SDS011;31262;51.978;5.924;2022-08-03T06:47:34;10.40;;;1.80;;
45536;SDS011;31262;51.978;5.924;2022-08-03T06:50:00;11.43;;;2.47;;
45536;SDS011;31262;51.978;5.924;2022-08-03T06:52:27;9.55;;;2.00;;
45536;SDS011;31262;51.978;5.924;2022-08-03T06:54:53;7.90;;;1.98;;
45536;SDS011;31262;51.978;5.924;2022-08-03T06:57:18;10.98;;;2.85;;
45536;SDS011;31262;51.978;5.924;2022-08-03T06:59:44;6.70;;;1.27;;
45536;SDS011;31262;51.978;5.924;2022-08-03T07:02:09;4.82;;;0.73;;
45536;SDS011;31262;51.978;5.924;2022-08-03T07:04:36;11.75;;;1.73;;
45536;SDS011;31262;51.978;5.924;2022-08-03T07:07:01;8.20;;;1.20;;
45536;SDS011;31262;51.978;5.924;2022-08-03T07:09:27;9.30;;;1.35;;
45536;SDS011;31262;51.978;5.924;2022-08-03T07:11:53;9.55;;;1.52;;
45536;SDS011;31262;51.978;5.924;2022-08-03T07:14:19;8.98;;;1.00;;
45536;SDS011;31262;51.978;5.924;2022-08-03T07:16:45;6.25;;;1.15;;
45536;SDS011;31262;51.978;5.924;2022-08-03T07:19:11;4.70;;;1.05;;
45536;SDS011;31262;51.978;5.924;2022-08-03T07:21:36;6.43;;;1.13;;
45536;SDS011;31262;51.978;5.924;2022-08-03T07:24:02;12.13;;;1.58;;
45536;SDS011;31262;51.978;5.924;2022-08-03T07:26:28;9.80;;;1.45;;
45536;SDS011;31262;51.978;5.924;2022-08-03T07:28:53;7.72;;;0.88;;
45536;SDS011;31262;51.978;5.924;2022-08-03T07:31:19;5.28;;;0.80;;
45536;SDS011;31262;51.978;5.924;2022-08-03T07:33:45;4.57;;;1.23;;
45536;SDS011;31262;51.978;5.924;2022-08-03T07:36:10;5.47;;;0.95;;
45536;SDS011;31262;51.978;5.924;2022-08-03T07:38:36;8.70;;;1.00;;
45536;SDS011;31262;51.978;5.924;2022-08-03T07:41:02;8.40;;;1.33;;
45536;SDS011;31262;51.978;5.924;2022-08-03T07:43:28;10.50;;;1.30;;
45536;SDS011;31262;51.978;5.924;2022-08-03T07:45:54;7.25;;;1.20;;
45536;SDS011;31262;51.978;5.924;2022-08-03T07:48:19;6.55;;;0.90;;
45536;SDS011;31262;51.978;5.924;2022-08-03T07:50:45;9.48;;;1.20;;
45536;SDS011;31262;51.978;5.924;2022-08-03T07:53:11;8.02;;;1.13;;
45536;SDS011;31262;51.978;5.924;2022-08-03T07:55:36;7.68;;;0.95;;
45536;SDS011;31262;51.978;5.924;2022-08-03T07:58:04;6.55;;;0.80;;
45536;SDS011;31262;51.978;5.924;2022-08-03T08:02:57;6.05;;;1.40;;
45536;SDS011;31262;51.978;5.924;2022-08-03T08:05:22;5.32;;;1.02;;
45536;SDS011;31262;51.978;5.924;2022-08-03T08:07:48;6.82;;;1.33;;
45536;SDS011;31262;51.978;5.924;2022-08-03T08:10:14;7.85;;;1.00;;
45536;SDS011;31262;51.978;5.924;2022-08-03T08:12:40;5.68;;;0.80;;
45536;SDS011;31262;51.978;5.924;2022-08-03T08:15:05;8.13;;;0.90;;
45536;SDS011;31262;51.978;5.924;2022-08-03T08:17:41;5.22;;;0.90;;
45536;SDS011;31262;51.978;5.924;2022-08-03T08:20:08;7.20;;;1.05;;
45536;SDS011;31262;51.978;5.924;2022-08-03T08:22:35;5.60;;;0.80;;
45536;SDS011;31262;51.978;5.924;2022-08-03T08:25:00;13.10;;;1.00;;
45536;SDS011;31262;51.978;5.924;2022-08-03T08:27:26;5.18;;;0.70;;
45536;SDS011;31262;51.978;5.924;2022-08-03T08:29:52;10.15;;;2.10;;
45536;SDS011;31262;51.978;5.924;2022-08-03T08:32:17;12.50;;;1.40;;
45536;SDS011;31262;51.978;5.924;2022-08-03T08:34:43;10.90;;;2.42;;
45536;SDS011;31262;51.978;5.924;2022-08-03T08:37:08;7.18;;;0.93;;
45536;SDS011;31262;51.978;5.924;2022-08-03T08:39:35;12.52;;;2.10;;
45536;SDS011;31262;51.978;5.924;2022-08-03T08:42:00;11.20;;;1.73;;
45536;SDS011;31262;51.978;5.924;2022-08-03T08:44:26;11.38;;;1.20;;
45536;SDS011;31262;51.978;5.924;2022-08-03T08:46:53;14.10;;;1.90;;
45536;SDS011;31262;51.978;5.924;2022-08-03T08:49:21;10.65;;;1.48;;
45536;SDS011;31262;51.978;5.924;2022-08-03T08:51:50;9.57;;;1.27;;
45536;SDS011;31262;51.978;5.924;2022-08-03T08:54:19;9.63;;;1.10;;
45536;SDS011;31262;51.978;5.924;2022-08-03T08:56:47;9.40;;;2.30;;
45536;SDS011;31262;51.978;5.924;2022-08-03T08:59:15;9.23;;;1.27;;
45536;SDS011;31262;51.978;5.924;2022-08-03T09:01:42;8.13;;;1.08;;
45536;SDS011;31262;51.978;5.924;2022-08-03T09:04:07;10.13;;;1.55;;
45536;SDS011;31262;51.978;5.924;2022-08-03T09:06:34;6.78;;;1.05;;
45536;SDS011;31262;51.978;5.924;2022-08-03T09:08:59;11.55;;;1.10;;
45536;SDS011;31262;51.978;5.924;2022-08-03T09:11:25;7.40;;;0.93;;
45536;SDS011;31262;51.978;5.924;2022-08-03T09:13:51;9.30;;;0.90;;
45536;SDS011;31262;51.978;5.924;2022-08-03T09:16:18;11.15;;;0.93;;
45536;SDS011;31262;51.978;5.924;2022-08-03T09:18:46;10.55;;;1.02;;
45536;SDS011;31262;51.978;5.924;2022-08-03T09:21:22;8.13;;;1.10;;
45536;SDS011;31262;51.978;5.924;2022-08-03T09:23:54;10.27;;;1.02;;
45536;SDS011;31262;51.978;5.924;2022-08-03T09:26:25;8.27;;;1.00;;
45536;SDS011;31262;51.978;5.924;2022-08-03T09:28:59;8.38;;;0.98;;
45536;SDS011;31262;51.978;5.924;2022-08-03T09:31:33;7.07;;;1.08;;
45536;SDS011;31262;51.978;5.924;2022-08-03T09:34:01;6.60;;;0.85;;
45536;SDS011;31262;51.978;5.924;2022-08-03T09:39:06;10.90;;;1.23;;
45536;SDS011;31262;51.978;5.924;2022-08-03T09:41:35;9.25;;;0.80;;
45536;SDS011;31262;51.978;5.924;2022-08-03T09:44:02;8.10;;;0.93;;
45536;SDS011;31262;51.978;5.924;2022-08-03T09:46:28;9.88;;;1.00;;
45536;SDS011;31262;51.978;5.924;2022-08-03T09:49:11;9.93;;;1.17;;
45536;SDS011;31262;51.978;5.924;2022-08-03T09:51:38;8.88;;;0.85;;
45536;SDS011;31262;51.978;5.924;2022-08-03T09:54:04;10.10;;;1.33;;
45536;SDS011;31262;51.978;5.924;2022-08-03T09:56:40;11.82;;;1.05;;
45536;SDS011;31262;51.978;5.924;2022-08-03T09:59:10;9.40;;;0.95;;
45536;SDS011;31262;51.978;5.924;2022-08-03T10:01:37;7.13;;;0.85;;
45536;SDS011;31262;51.978;5.924;2022-08-03T10:04:05;7.22;;;1.00;;
45536;SDS011;31262;51.978;5.924;2022-08-03T10:06:41;10.05;;;0.93;;
45536;SDS011;31262;51.978;5.924;2022-08-03T10:09:24;6.47;;;0.70;;
45536;SDS011;31262;51.978;5.924;2022-08-03T10:11:50;13.02;;;0.80;;
45536;SDS011;31262;51.978;5.924;2022-08-03T10:14:16;8.15;;;0.82;;
45536;SDS011;31262;51.978;5.924;2022-08-03T10:16:43;4.90;;;0.80;;
45536;SDS011;31262;51.978;5.924;2022-08-03T10:19:10;8.27;;;0.82;;
45536;SDS011;31262;51.978;5.924;2022-08-03T10:21:38;10.80;;;0.80;;
45536;SDS011;31262;51.978;5.924;2022-08-03T10:24:06;11.68;;;1.15;;
45536;SDS011;31262;51.978;5.924;2022-08-03T10:26:34;9.52;;;1.08;;
45536;SDS011;31262;51.978;5.924;2022-08-03T10:31:33;8.82;;;1.00;;
45536;SDS011;31262;51.978;5.924;2022-08-03T10:34:04;10.25;;;0.95;;
45536;SDS011;31262;51.978;5.924;2022-08-03T10:36:35;8.25;;;1.10;;
45536;SDS011;31262;51.978;5.924;2022-08-03T10:39:04;12.85;;;1.00;;
45536;SDS011;31262;51.978;5.924;2022-08-03T10:41:31;6.63;;;0.68;;
45536;SDS011;31262;51.978;5.924;2022-08-03T10:46:37;7.18;;;0.80;;
45536;SDS011;31262;51.978;5.924;2022-08-03T10:49:04;7.15;;;0.80;;
45536;SDS011;31262;51.978;5.924;2022-08-03T10:51:31;6.93;;;0.80;;
45536;SDS011;31262;51.978;5.924;2022-08-03T10:53:58;12.27;;;3.38;;
45536;SDS011;31262;51.978;5.924;2022-08-03T10:59:17;12.10;;;1.85;;
45536;SDS011;31262;51.978;5.924;2022-08-03T11:02:03;5.68;;;0.70;;
45536;SDS011;31262;51.978;5.924;2022-08-03T11:04:32;6.03;;;0.68;;
45536;SDS011;31262;51.978;5.924;2022-08-03T11:07:17;5.50;;;0.68;;
45536;SDS011;31262;51.978;5.924;2022-08-03T11:09:48;9.45;;;1.23;;
45536;SDS011;31262;51.978;5.924;2022-08-03T11:12:24;13.93;;;4.28;;
45536;SDS011;31262;51.978;5.924;2022-08-03T11:14:55;12.77;;;4.95;;
45536;SDS011;31262;51.978;5.924;2022-08-03T11:17:22;8.02;;;1.25;;
45536;SDS011;31262;51.978;5.924;2022-08-03T11:19:48;13.27;;;1.00;;
45536;SDS011;31262;51.978;5.924;2022-08-03T11:22:15;8.73;;;0.82;;
45536;SDS011;31262;51.978;5.924;2022-08-03T11:29:56;8.30;;;0.98;;
45536;SDS011;31262;51.978;5.924;2022-08-03T11:35:17;6.28;;;0.77;;
45536;SDS011;31262;51.978;5.924;2022-08-03T11:43:52;7.85;;;0.57;;
45536;SDS011;31262;51.978;5.924;2022-08-03T11:46:03;9.00;;;0.50;;
45536;SDS011;31262;51.978;5.924;2022-08-03T11:50:59;9.82;;;0.70;;
45536;SDS011;31262;51.978;5.924;2022-08-03T11:53:25;6.65;;;0.73;;
45536;SDS011;31262;51.978;5.924;2022-08-03T11:55:52;6.32;;;0.60;;
45536;SDS011;31262;51.978;5.924;2022-08-03T11:58:20;4.82;;;0.50;;
45536;SDS011;31262;51.978;5.924;2022-08-03T12:00:47;5.85;;;0.60;;
45536;SDS011;31262;51.978;5.924;2022-08-03T12:03:14;10.35;;;0.85;;
45536;SDS011;31262;51.978;5.924;2022-08-03T12:05:48;6.37;;;0.60;;
45536;SDS011;31262;51.978;5.924;2022-08-03T12:08:16;7.28;;;0.90;;
45536;SDS011;31262;51.978;5.924;2022-08-03T12:10:53;5.60;;;0.55;;
45536;SDS011;31262;51.978;5.924;2022-08-03T12:13:20;5.75;;;0.70;;
45536;SDS011;31262;51.978;5.924;2022-08-03T12:15:51;11.73;;;0.73;;
45536;SDS011;31262;51.978;5.924;2022-08-03T12:18:18;6.80;;;0.70;;
45536;SDS011;31262;51.978;5.924;2022-08-03T12:20:45;6.07;;;0.70;;
45536;SDS011;31262;51.978;5.924;2022-08-03T12:23:12;7.72;;;0.98;;
45536;SDS011;31262;51.978;5.924;2022-08-03T12:25:38;5.85;;;0.90;;
45536;SDS011;31262;51.978;5.924;2022-08-03T12:30:43;8.30;;;0.80;;
45536;SDS011;31262;51.978;5.924;2022-08-03T12:33:15;9.23;;;0.75;;
45536;SDS011;31262;51.978;5.924;2022-08-03T12:35:44;5.38;;;0.60;;
45536;SDS011;31262;51.978;5.924;2022-08-03T12:38:17;8.10;;;0.95;;
45536;SDS011;31262;51.978;5.924;2022-08-03T12:40:54;7.20;;;0.60;;
45536;SDS011;31262;51.978;5.924;2022-08-03T12:43:21;8.95;;;0.90;;
45536;SDS011;31262;51.978;5.924;2022-08-03T12:45:47;6.47;;;0.75;;
45536;SDS011;31262;51.978;5.924;2022-08-03T12:48:12;4.53;;;0.57;;
45536;SDS011;31262;51.978;5.924;2022-08-03T12:50:38;6.50;;;0.50;;
45536;SDS011;31262;51.978;5.924;2022-08-03T12:53:06;4.63;;;0.50;;
45536;SDS011;31262;51.978;5.924;2022-08-03T12:55:33;11.38;;;4.82;;
45536;SDS011;31262;51.978;5.924;2022-08-03T12:58:00;7.43;;;1.85;;
45536;SDS011;31262;51.978;5.924;2022-08-03T13:00:27;7.50;;;1.08;;
45536;SDS011;31262;51.978;5.924;2022-08-03T13:03:03;10.80;;;5.05;;
45536;SDS011;31262;51.978;5.924;2022-08-03T13:05:31;6.97;;;1.50;;
45536;SDS011;31262;51.978;5.924;2022-08-03T13:08:16;7.68;;;2.85;;
45536;SDS011;31262;51.978;5.924;2022-08-03T13:10:46;5.10;;;1.10;;
45536;SDS011;31262;51.978;5.924;2022-08-03T13:13:12;4.82;;;0.90;;
45536;SDS011;31262;51.978;5.924;2022-08-03T13:15:37;4.72;;;0.50;;
45536;SDS011;31262;51.978;5.924;2022-08-03T13:18:03;7.03;;;1.25;;
45536;SDS011;31262;51.978;5.924;2022-08-03T13:20:29;10.48;;;4.60;;
45536;SDS011;31262;51.978;5.924;2022-08-03T13:22:54;5.65;;;1.30;;
45536;SDS011;31262;51.978;5.924;2022-08-03T13:25:20;7.72;;;0.60;;
45536;SDS011;31262;51.978;5.924;2022-08-03T13:27:46;4.60;;;0.50;;
45536;SDS011;31262;51.978;5.924;2022-08-03T13:30:12;4.43;;;0.47;;
45536;SDS011;31262;51.978;5.924;2022-08-03T13:32:39;4.15;;;0.32;;
45536;SDS011;31262;51.978;5.924;2022-08-03T13:35:05;3.22;;;0.40;;
45536;SDS011;31262;51.978;5.924;2022-08-03T13:37:32;2.80;;;0.45;;
45536;SDS011;31262;51.978;5.924;2022-08-03T13:39:59;4.03;;;0.50;;
45536;SDS011;31262;51.978;5.924;2022-08-03T13:42:26;3.92;;;0.43;;
45536;SDS011;31262;51.978;5.924;2022-08-03T13:44:53;2.22;;;0.35;;
45536;SDS011;31262;51.978;5.924;2022-08-03T13:47:18;6.72;;;0.47;;
45536;SDS011;31262;51.978;5.924;2022-08-03T13:49:44;2.00;;;0.32;;
45536;SDS011;31262;51.978;5.924;2022-08-03T13:52:10;3.50;;;0.40;;
45536;SDS011;31262;51.978;5.924;2022-08-03T13:54:35;1.55;;;0.30;;
45536;SDS011;31262;51.978;5.924;2022-08-03T13:57:01;5.25;;;0.38;;
45536;SDS011;31262;51.978;5.924;2022-08-03T13:59:27;3.55;;;0.50;;
45536;SDS011;31262;51.978;5.924;2022-08-03T14:01:52;4.13;;;0.55;;
45536;SDS011;31262;51.978;5.924;2022-08-03T14:04:18;2.30;;;0.32;;
45536;SDS011;31262;51.978;5.924;2022-08-03T14:06:45;2.70;;;0.40;;
45536;SDS011;31262;51.978;5.924;2022-08-03T14:09:13;2.38;;;0.28;;
45536;SDS011;31262;51.978;5.924;2022-08-03T14:11:40;1.98;;;0.35;;
45536;SDS011;31262;51.978;5.924;2022-08-03T14:14:06;2.85;;;0.30;;
45536;SDS011;31262;51.978;5.924;2022-08-03T14:16:32;4.28;;;0.70;;
45536;SDS011;31262;51.978;5.924;2022-08-03T14:18:58;2.22;;;0.38;;
45536;SDS011;31262;51.978;5.924;2022-08-03T14:21:23;2.10;;;0.30;;
45536;SDS011;31262;51.978;5.924;2022-08-03T14:23:49;2.03;;;0.40;;
45536;SDS011;31262;51.978;5.924;2022-08-03T14:26:14;2.80;;;0.47;;
45536;SDS011;31262;51.978;5.924;2022-08-03T14:28:42;3.47;;;0.55;;
45536;SDS011;31262;51.978;5.924;2022-08-03T14:31:08;4.60;;;0.50;;
45536;SDS011;31262;51.978;5.924;2022-08-03T14:33:33;1.73;;;0.40;;
45536;SDS011;31262;51.978;5.924;2022-08-03T14:35:59;3.47;;;0.52;;
45536;SDS011;31262;51.978;5.924;2022-08-03T14:38:24;4.65;;;0.50;;
45536;SDS011;31262;51.978;5.924;2022-08-03T14:40:50;2.63;;;0.65;;
45536;SDS011;31262;51.978;5.924;2022-08-03T14:43:17;3.72;;;0.50;;
45536;SDS011;31262;51.978;5.924;2022-08-03T14:45:44;2.45;;;0.40;;
45536;SDS011;31262;51.978;5.924;2022-08-03T14:48:09;3.85;;;0.57;;
45536;SDS011;31262;51.978;5.924;2022-08-03T14:50:36;3.88;;;0.60;;
45536;SDS011;31262;51.978;5.924;2022-08-03T14:53:02;1.25;;;0.30;;
45536;SDS011;31262;51.978;5.924;2022-08-03T14:55:27;1.55;;;0.30;;
45536;SDS011;31262;51.978;5.924;2022-08-03T14:57:53;1.90;;;0.30;;
45536;SDS011;31262;51.978;5.924;2022-08-03T15:00:18;2.30;;;0.52;;
45536;SDS011;31262;51.978;5.924;2022-08-03T15:02:44;3.33;;;0.50;;
45536;SDS011;31262;51.978;5.924;2022-08-03T15:05:10;2.78;;;0.40;;
45536;SDS011;31262;51.978;5.924;2022-08-03T15:07:37;2.13;;;0.40;;
45536;SDS011;31262;51.978;5.924;2022-08-03T15:10:03;1.83;;;0.40;;
45536;SDS011;31262;51.978;5.924;2022-08-03T15:12:29;2.38;;;0.40;;
45536;SDS011;31262;51.978;5.924;2022-08-03T15:14:54;1.95;;;0.40;;
45536;SDS011;31262;51.978;5.924;2022-08-03T15:17:20;2.97;;;0.40;;
45536;SDS011;31262;51.978;5.924;2022-08-03T15:19:46;2.65;;;0.40;;
45536;SDS011;31262;51.978;5.924;2022-08-03T15:22:11;3.20;;;0.30;;
45536;SDS011;31262;51.978;5.924;2022-08-03T15:24:39;2.07;;;0.80;;
45536;SDS011;31262;51.978;5.924;2022-08-03T15:27:05;4.28;;;0.80;;
45536;SDS011;31262;51.978;5.924;2022-08-03T15:29:31;3.40;;;0.90;;
45536;SDS011;31262;51.978;5.924;2022-08-03T15:31:56;3.50;;;0.80;;
45536;SDS011;31262;51.978;5.924;2022-08-03T15:34:22;5.60;;;0.93;;
45536;SDS011;31262;51.978;5.924;2022-08-03T15:36:48;6.28;;;2.47;;
45536;SDS011;31262;51.978;5.924;2022-08-03T15:39:13;3.97;;;1.27;;
45536;SDS011;31262;51.978;5.924;2022-08-03T15:41:39;3.00;;;0.50;;